Time;durP1;ratioP1;P1;durP2;ratioP2;P2;SDS_P1;SDS_P2;PMS_P1;PMS_P2;Temp;Humidity;BMP_temperature;BMP_pressure;BME280_temperature;BME280_humidity;BME280_pressure;Samples;Min_cycle;Max_cycle;Signal;HPM_P1;HPM_P2
2023/01/29 00:01:29;;;;;;;14.10;9.82;;;3.40;99.90;;;;;;5080840;28;20028;-43
2023/01/29 00:03:54;;;;;;;14.05;10.02;;;3.40;99.90;;;;;;5080099;28;20034;-43
2023/01/29 00:06:22;;;;;;;15.88;10.98;;;3.40;99.90;;;;;;5080536;28;20024;-43
2023/01/29 00:08:47;;;;;;;14.15;10.07;;;3.40;99.90;;;;;;5080878;28;20028;-43
2023/01/29 00:11:13;;;;;;;13.05;9.55;;;3.30;99.90;;;;;;5079167;28;20524;-43
2023/01/29 00:13:39;;;;;;;14.38;10.35;;;3.30;99.90;;;;;;5080127;28;20020;-43
2023/01/29 00:16:05;;;;;;;15.20;10.95;;;3.30;99.90;;;;;;5080414;28;20169;-43
2023/01/29 00:18:30;;;;;;;14.35;10.27;;;3.30;99.90;;;;;;5080485;28;20090;-43
2023/01/29 00:20:56;;;;;;;14.05;10.23;;;3.30;99.90;;;;;;5080506;28;20016;-43
2023/01/29 00:23:22;;;;;;;13.77;9.88;;;3.30;99.90;;;;;;5079957;28;20585;-43
2023/01/29 00:25:48;;;;;;;15.70;11.35;;;3.30;99.90;;;;;;5079121;28;20030;-42
2023/01/29 00:28:13;;;;;;;13.68;10.05;;;3.30;99.90;;;;;;5079751;28;20016;-43
2023/01/29 00:30:39;;;;;;;15.27;11.15;;;3.30;99.90;;;;;;5080109;28;20035;-43
2023/01/29 00:33:05;;;;;;;16.38;10.70;;;3.30;99.90;;;;;;5079832;28;20038;-44
2023/01/29 00:35:31;;;;;;;14.63;10.48;;;3.30;99.90;;;;;;5079616;28;20125;-44
2023/01/29 00:37:57;;;;;;;17.13;11.70;;;3.30;99.90;;;;;;5079533;28;20065;-44
2023/01/29 00:40:24;;;;;;;16.92;11.95;;;3.30;99.90;;;;;;5080166;28;20141;-42
2023/01/29 00:45:35;;;;;;;16.58;10.90;;;3.30;99.90;;;;;;5060516;28;20055;-43
2023/01/29 00:48:04;;;;;;;16.25;11.18;;;3.30;99.90;;;;;;5078903;28;20113;-43
2023/01/29 00:50:30;;;;;;;15.50;10.68;;;3.30;99.90;;;;;;5083810;28;20064;-42
2023/01/29 00:52:56;;;;;;;15.85;10.93;;;3.30;99.90;;;;;;5083379;28;20858;-42
2023/01/29 00:55:21;;;;;;;17.35;10.90;;;3.20;99.90;;;;;;5084480;28;20040;-43
2023/01/29 00:57:47;;;;;;;15.20;10.60;;;3.20;99.90;;;;;;5083997;28;20121;-42
2023/01/29 01:00:16;;;;;;;16.05;11.80;;;3.20;99.90;;;;;;5083069;28;20062;-43
2023/01/29 01:05:26;;;;;;;14.82;10.38;;;3.20;99.90;;;;;;5084095;28;20039;-43
2023/01/29 01:07:55;;;;;;;14.85;11.10;;;3.20;99.90;;;;;;5082600;28;20028;-43
2023/01/29 01:10:25;;;;;;;16.23;10.68;;;3.20;99.90;;;;;;5083805;28;20484;-44
2023/01/29 01:12:54;;;;;;;12.93;10.00;;;3.20;99.90;;;;;;5083236;28;20020;-44
2023/01/29 01:15:21;;;;;;;15.55;10.60;;;3.20;99.90;;;;;;5083464;28;20036;-43
2023/01/29 01:17:47;;;;;;;15.77;11.00;;;3.20;99.90;;;;;;5083363;28;20031;-43
2023/01/29 01:20:14;;;;;;;17.65;11.60;;;3.20;99.90;;;;;;5082584;28;20129;-44
2023/01/29 01:22:40;;;;;;;16.48;11.50;;;3.20;99.90;;;;;;5082556;28;20115;-43
2023/01/29 01:25:06;;;;;;;18.40;12.38;;;3.20;99.90;;;;;;5082244;28;20026;-43
2023/01/29 01:27:33;;;;;;;15.85;11.35;;;3.20;99.90;;;;;;5082278;28;20051;-43
2023/01/29 01:29:59;;;;;;;18.50;12.73;;;3.10;99.90;;;;;;5083036;28;20028;-43
2023/01/29 01:32:24;;;;;;;16.33;11.52;;;3.10;99.90;;;;;;5083496;28;20400;-43
2023/01/29 01:34:51;;;;;;;16.75;11.30;;;3.10;99.90;;;;;;5082270;28;20483;-43
2023/01/29 01:37:16;;;;;;;18.73;12.30;;;3.10;99.90;;;;;;5082920;28;20047;-43
2023/01/29 01:39:42;;;;;;;16.05;11.38;;;3.10;99.90;;;;;;5082614;28;20032;-42
2023/01/29 01:42:12;;;;;;;16.40;11.60;;;3.10;99.90;;;;;;5081596;28;20032;-43
2023/01/29 01:45:03;;;;;;;15.68;11.40;;;3.10;99.90;;;;;;5082576;28;20024;-44
2023/01/29 01:47:37;;;;;;;18.23;11.40;;;3.00;99.90;;;;;;5062575;28;20029;-43
2023/01/29 01:50:21;;;;;;;15.98;11.18;;;3.10;99.90;;;;;;5077464;28;20024;-44
2023/01/29 01:52:51;;;;;;;16.42;11.95;;;3.10;99.90;;;;;;5063184;28;20844;-43
2023/01/29 01:55:20;;;;;;;17.10;11.75;;;3.10;99.90;;;;;;5077602;28;20554;-43
2023/01/29 01:57:49;;;;;;;17.17;11.13;;;3.00;99.90;;;;;;5081784;28;20058;-42
2023/01/29 02:00:19;;;;;;;16.60;10.90;;;3.00;99.90;;;;;;5074995;28;20159;-43
2023/01/29 02:11:37;;;;;;;16.67;11.27;;;3.00;99.90;;;;;;5078582;28;20051;-43
2023/01/29 02:14:02;;;;;;;16.98;11.50;;;3.00;99.90;;;;;;5082105;28;20020;-43
2023/01/29 02:16:28;;;;;;;16.95;11.95;;;3.00;99.90;;;;;;5081188;28;20832;-44
2023/01/29 02:18:53;;;;;;;18.90;12.95;;;3.00;99.90;;;;;;5082499;28;20073;-44
2023/01/29 02:21:34;;;;;;;18.83;11.73;;;3.00;99.90;;;;;;5082235;28;20032;-44
2023/01/29 02:24:13;;;;;;;16.92;12.25;;;3.00;99.90;;;;;;5081865;28;20831;-43
2023/01/29 02:27:13;;;;;;;17.27;11.70;;;3.00;99.90;;;;;;5081881;28;20032;-44
2023/01/29 02:29:55;;;;;;;16.85;11.10;;;3.00;99.90;;;;;;5081711;28;20107;-44
2023/01/29 02:32:31;;;;;;;15.65;10.93;;;2.90;99.90;;;;;;5078553;28;20042;-44
2023/01/29 02:35:30;;;;;;;20.00;12.48;;;2.90;99.90;;;;;;5081698;28;20055;-44
2023/01/29 02:38:00;;;;;;;19.95;12.57;;;2.90;99.90;;;;;;5081058;28;20093;-42
2023/01/29 02:40:42;;;;;;;18.60;12.50;;;2.90;99.90;;;;;;5080920;28;20111;-43
2023/01/29 02:43:46;;;;;;;18.67;12.75;;;3.00;99.90;;;;;;5070704;28;20032;-43
2023/01/29 02:46:42;;;;;;;17.63;12.30;;;2.90;99.90;;;;;;5080696;28;20027;-42
2023/01/29 02:49:23;;;;;;;17.45;11.77;;;2.90;99.90;;;;;;5081518;28;20062;-42
2023/01/29 02:51:54;;;;;;;17.95;12.18;;;2.90;99.90;;;;;;5080383;28;20120;-43
2023/01/29 02:54:27;;;;;;;18.85;12.57;;;2.90;99.90;;;;;;5081276;28;20523;-42
2023/01/29 02:56:57;;;;;;;18.08;12.73;;;2.90;99.90;;;;;;5080719;28;20143;-43
2023/01/29 02:59:46;;;;;;;18.30;12.02;;;2.90;99.90;;;;;;5081429;28;20026;-43
2023/01/29 03:02:24;;;;;;;18.95;12.63;;;2.90;99.90;;;;;;5079958;28;20043;-44
2023/01/29 03:04:58;;;;;;;18.45;12.57;;;2.90;99.90;;;;;;5081413;28;20063;-43
2023/01/29 03:07:40;;;;;;;18.70;12.63;;;2.90;99.90;;;;;;5079455;28;20130;-43
2023/01/29 03:10:20;;;;;;;18.35;12.52;;;2.90;99.90;;;;;;5081180;28;20035;-43
2023/01/29 03:13:16;;;;;;;18.83;12.98;;;2.90;99.90;;;;;;5080952;28;20024;-44
2023/01/29 03:15:46;;;;;;;19.77;12.73;;;2.90;99.90;;;;;;5029205;28;20048;-44
2023/01/29 03:18:15;;;;;;;20.38;13.65;;;2.90;99.90;;;;;;5078569;28;20032;-43
2023/01/29 03:20:48;;;;;;;20.55;13.20;;;2.90;99.90;;;;;;5080840;28;20032;-44
2023/01/29 03:23:46;;;;;;;20.50;13.85;;;2.90;99.90;;;;;;5080521;28;20546;-44
2023/01/29 03:34:33;;;;;;;19.02;13.07;;;3.00;99.90;;;;;;5080685;28;20055;-43
2023/01/29 03:37:06;;;;;;;20.75;14.85;;;3.00;99.90;;;;;;5080576;28;20168;-43
2023/01/29 03:39:33;;;;;;;20.92;14.32;;;2.90;99.90;;;;;;5080440;28;20115;-43
2023/01/29 03:42:28;;;;;;;22.50;15.48;;;2.90;99.90;;;;;;5079630;28;20032;-43
2023/01/29 03:45:23;;;;;;;23.05;14.00;;;2.90;99.90;;;;;;5079344;28;20135;-43
2023/01/29 03:47:59;;;;;;;21.25;13.57;;;2.90;99.90;;;;;;5079856;28;20028;-43
2023/01/29 03:50:52;;;;;;;18.80;13.00;;;3.00;99.90;;;;;;5070862;28;20150;-43
2023/01/29 03:53:29;;;;;;;20.45;13.77;;;2.90;99.90;;;;;;5081510;28;20024;-43
2023/01/29 03:56:14;;;;;;;20.67;13.57;;;2.90;99.90;;;;;;5081184;28;20105;-43
2023/01/29 03:58:57;;;;;;;18.58;12.88;;;2.90;99.90;;;;;;5080647;28;20065;-44
2023/01/29 04:01:30;;;;;;;19.55;13.73;;;2.90;99.90;;;;;;5080505;28;20032;-44
2023/01/29 04:04:07;;;;;;;;;;;2.90;99.90;;;;;;5079830;28;20031;-44
2023/01/29 04:06:36;;;;;;;19.17;12.30;;;2.90;99.90;;;;;;5080972;28;19915;-44
2023/01/29 04:09:22;;;;;;;19.73;12.85;;;2.90;99.90;;;;;;5079963;28;20028;-44
2023/01/29 04:12:08;;;;;;;19.35;12.45;;;2.90;99.90;;;;;;5080638;28;20916;-43
2023/01/29 04:14:36;;;;;;;18.65;13.07;;;2.90;99.90;;;;;;5080459;28;20016;-43
2023/01/29 04:17:28;;;;;;;19.95;13.05;;;2.90;99.90;;;;;;5080129;28;20117;-43
2023/01/29 04:19:54;;;;;;;18.27;12.63;;;2.90;99.90;;;;;;5080272;28;20024;-44
2023/01/29 04:22:30;;;;;;;20.73;14.07;;;2.90;99.90;;;;;;5084027;28;20040;-43
2023/01/29 04:25:01;;;;;;;18.58;12.73;;;2.90;99.90;;;;;;5083466;28;20140;-44
2023/01/29 04:27:49;;;;;;;19.73;13.05;;;2.90;99.90;;;;;;5084600;28;20016;-43
2023/01/29 04:30:33;;;;;;;18.02;11.95;;;3.00;99.90;;;;;;5083334;28;20597;-42
2023/01/29 04:33:20;;;;;;;20.08;13.90;;;2.90;99.90;;;;;;5084518;28;20038;-44
2023/01/29 04:36:27;;;;;;;17.23;12.68;;;2.90;99.90;;;;;;5084198;28;20052;-43
2023/01/29 04:39:16;;;;;;;19.10;13.07;;;2.90;99.90;;;;;;5084127;28;20520;-42
2023/01/29 04:41:53;;;;;;;22.35;13.93;;;2.90;99.90;;;;;;5083680;28;20081;-43
2023/01/29 04:44:48;;;;;;;18.58;12.68;;;2.90;99.90;;;;;;5083220;28;20829;-43
2023/01/29 04:47:18;;;;;;;17.75;12.68;;;2.90;99.90;;;;;;5073567;28;20066;-43
2023/01/29 04:49:45;;;;;;;19.80;13.32;;;2.90;99.90;;;;;;5084389;28;20502;-43
2023/01/29 04:52:20;;;;;;;19.40;13.50;;;2.90;99.90;;;;;;5083396;28;20034;-44
2023/01/29 04:55:04;;;;;;;21.08;13.68;;;2.90;99.90;;;;;;5083792;28;20028;-43
2023/01/29 04:57:57;;;;;;;19.83;12.57;;;2.90;99.90;;;;;;5072322;28;20150;-43
2023/01/29 05:00:41;;;;;;;19.27;12.93;;;2.90;99.90;;;;;;5083900;28;20202;-43
2023/01/29 05:03:10;;;;;;;21.70;14.23;;;2.90;99.90;;;;;;5083440;28;20032;-44
2023/01/29 05:05:40;;;;;;;23.83;14.82;;;2.90;99.90;;;;;;5082672;28;20059;-44
2023/01/29 05:08:06;;;;;;;20.10;14.45;;;2.90;99.90;;;;;;5084118;28;20031;-43
2023/01/29 05:10:33;;;;;;;20.50;13.45;;;2.90;99.90;;;;;;5083427;28;20063;-43
2023/01/29 05:13:01;;;;;;;20.88;14.10;;;2.90;99.90;;;;;;5082208;28;20495;-43
2023/01/29 05:16:02;;;;;;;24.95;16.55;;;2.90;99.90;;;;;;5083480;28;20028;-43
2023/01/29 05:18:29;;;;;;;22.65;15.32;;;2.90;99.90;;;;;;5051617;28;20036;-43
2023/01/29 05:20:56;;;;;;;25.48;15.80;;;2.90;99.90;;;;;;5082621;28;20032;-42
2023/01/29 05:23:22;;;;;;;23.15;15.27;;;2.90;99.90;;;;;;5071801;28;20035;-43
2023/01/29 05:25:50;;;;;;;22.33;14.05;;;2.90;99.90;;;;;;5083135;28;20773;-43
2023/01/29 05:28:16;;;;;;;20.63;13.57;;;3.00;99.90;;;;;;5082334;28;20023;-43
2023/01/29 05:30:47;;;;;;;22.65;14.70;;;3.00;99.90;;;;;;5082926;28;20494;-43
2023/01/29 05:33:27;;;;;;;21.65;14.27;;;3.00;99.90;;;;;;5081537;28;20632;-43
2023/01/29 05:35:54;;;;;;;20.88;13.82;;;3.00;99.90;;;;;;5082437;28;20155;-43
2023/01/29 05:38:20;;;;;;;20.25;13.70;;;3.00;99.90;;;;;;5083300;28;20562;-44
2023/01/29 05:40:46;;;;;;;21.60;14.30;;;3.00;99.90;;;;;;5082193;28;20083;-43
2023/01/29 05:43:20;;;;;;;19.88;13.38;;;3.00;99.90;;;;;;5082852;28;20119;-43
2023/01/29 05:45:56;;;;;;;23.10;14.57;;;3.00;99.90;;;;;;5083550;28;20391;-44
2023/01/29 05:48:22;;;;;;;21.80;14.38;;;3.00;99.90;;;;;;5081535;28;20107;-44
2023/01/29 05:50:48;;;;;;;21.85;13.82;;;3.00;99.90;;;;;;5082474;28;20039;-43
2023/01/29 05:53:13;;;;;;;20.00;13.13;;;3.10;99.90;;;;;;5082529;28;20482;-44
2023/01/29 05:55:42;;;;;;;22.50;15.48;;;3.10;99.90;;;;;;5081534;28;20462;-44
2023/01/29 05:58:08;;;;;;;20.85;14.65;;;3.10;99.90;;;;;;5082508;28;20032;-44
2023/01/29 06:00:33;;;;;;;21.05;13.85;;;3.10;99.90;;;;;;5082714;28;20031;-43
2023/01/29 06:02:59;;;;;;;21.13;14.40;;;3.10;99.90;;;;;;5081118;28;20031;-44
2023/01/29 06:05:24;;;;;;;22.30;14.63;;;3.10;99.90;;;;;;5081923;28;20016;-43
2023/01/29 06:07:50;;;;;;;22.45;15.18;;;3.10;99.90;;;;;;5081941;28;20020;-42
2023/01/29 06:10:17;;;;;;;22.92;15.40;;;3.10;99.90;;;;;;5081023;28;20559;-43
2023/01/29 06:12:43;;;;;;;24.45;16.15;;;3.00;99.90;;;;;;5082151;28;20028;-43
2023/01/29 06:15:10;;;;;;;26.00;18.42;;;3.10;99.90;;;;;;5082106;28;20062;-43
2023/01/29 06:17:35;;;;;;;27.17;17.38;;;3.00;99.90;;;;;;5081000;28;20079;-43
2023/01/29 06:20:01;;;;;;;22.65;16.67;;;3.10;99.90;;;;;;5082106;28;20147;-43
2023/01/29 06:22:26;;;;;;;20.92;15.07;;;3.00;99.90;;;;;;5081032;28;20519;-43
2023/01/29 06:24:52;;;;;;;21.73;15.10;;;3.10;99.90;;;;;;5081205;28;20031;-44
2023/01/29 06:27:17;;;;;;;20.08;14.70;;;3.10;99.90;;;;;;5082498;28;20035;-43
2023/01/29 06:29:43;;;;;;;23.27;15.77;;;3.10;99.90;;;;;;5080271;28;20024;-43
2023/01/29 06:32:08;;;;;;;26.73;16.38;;;3.10;99.90;;;;;;5082408;28;20487;-43
2023/01/29 06:34:34;;;;;;;22.88;15.75;;;3.10;99.90;;;;;;5082083;28;20092;-43
2023/01/29 06:37:00;;;;;;;23.30;15.88;;;3.10;99.90;;;;;;5081218;28;20055;-43
2023/01/29 06:39:25;;;;;;;23.65;16.58;;;3.10;99.90;;;;;;5081468;28;20020;-43
2023/01/29 06:41:51;;;;;;;27.55;16.85;;;3.10;99.90;;;;;;5081579;28;20681;-43
2023/01/29 06:44:16;;;;;;;23.42;16.52;;;3.10;99.90;;;;;;5079895;28;20020;-43
2023/01/29 06:46:42;;;;;;;25.15;17.30;;;3.10;99.90;;;;;;5081065;28;20142;-43
2023/01/29 06:49:07;;;;;;;25.60;17.80;;;3.10;99.90;;;;;;5081377;28;20050;-43
2023/01/29 06:51:33;;;;;;;21.45;15.32;;;3.10;99.90;;;;;;5081321;28;20060;-43
2023/01/29 06:53:59;;;;;;;25.38;15.80;;;3.10;99.90;;;;;;5081605;28;20642;-43
2023/01/29 06:56:24;;;;;;;24.27;16.05;;;3.10;99.90;;;;;;5082085;28;20055;-44
2023/01/29 06:58:50;;;;;;;23.52;16.42;;;3.10;99.90;;;;;;5080789;28;20423;-43
2023/01/29 07:01:16;;;;;;;25.50;16.02;;;3.20;99.90;;;;;;5081081;28;20057;-44
2023/01/29 07:03:42;;;;;;;24.15;16.38;;;3.20;99.90;;;;;;5081072;28;20115;-43
2023/01/29 07:06:08;;;;;;;23.00;15.77;;;3.20;99.90;;;;;;5079735;28;20148;-43
2023/01/29 07:08:38;;;;;;;23.65;16.38;;;3.20;99.90;;;;;;5080992;28;20745;-42
2023/01/29 07:11:04;;;;;;;23.90;14.68;;;3.20;99.90;;;;;;5080673;28;20024;-43
2023/01/29 07:13:30;;;;;;;22.42;14.75;;;3.20;99.90;;;;;;5080609;28;20019;-43
2023/01/29 07:16:00;;;;;;;21.83;14.57;;;3.20;99.90;;;;;;5080997;28;20032;-43
2023/01/29 07:18:26;;;;;;;22.20;15.05;;;3.20;99.90;;;;;;5080439;28;20555;-43
2023/01/29 07:20:52;;;;;;;22.15;15.45;;;3.20;99.90;;;;;;5079501;28;20141;-43
2023/01/29 07:23:17;;;;;;;23.02;15.40;;;3.20;99.90;;;;;;5080976;28;20803;-43
2023/01/29 07:25:43;;;;;;;23.58;15.73;;;3.20;99.90;;;;;;5080418;28;20533;-43
2023/01/29 07:28:09;;;;;;;23.40;15.35;;;3.20;99.90;;;;;;5081049;28;20028;-43
2023/01/29 07:30:35;;;;;;;24.75;16.00;;;3.20;99.90;;;;;;5080186;28;20565;-43
2023/01/29 07:33:05;;;;;;;22.58;15.60;;;3.20;99.90;;;;;;5079709;28;20585;-43
2023/01/29 07:35:35;;;;;;;23.88;15.85;;;3.20;99.90;;;;;;5080110;28;20122;-43
2023/01/29 07:38:00;;;;;;;24.00;15.73;;;3.20;99.90;;;;;;5080476;28;20093;-42
2023/01/29 07:40:26;;;;;;;22.38;14.82;;;3.20;99.90;;;;;;5079651;28;20104;-43
2023/01/29 07:43:00;;;;;;;22.95;15.48;;;3.20;99.90;;;;;;5080574;28;20093;-44
2023/01/29 07:45:27;;;;;;;23.70;15.57;;;3.30;99.90;;;;;;5080575;28;20115;-44
2023/01/29 07:47:54;;;;;;;26.02;16.80;;;3.30;99.90;;;;;;5080290;28;20047;-43
2023/01/29 07:50:23;;;;;;;25.73;17.27;;;3.30;99.90;;;;;;5080617;28;20063;-44
2023/01/29 07:52:49;;;;;;;26.13;16.20;;;3.20;99.90;;;;;;5079767;28;20032;-43
2023/01/29 07:55:15;;;;;;;26.38;18.17;;;3.30;99.90;;;;;;5081894;28;20047;-43
2023/01/29 07:57:40;;;;;;;24.90;17.15;;;3.30;99.90;;;;;;5084085;28;20040;-43
2023/01/29 08:00:07;;;;;;;24.77;17.70;;;3.30;99.90;;;;;;5084290;28;20061;-43
2023/01/29 08:02:32;;;;;;;22.70;15.82;;;3.30;99.90;;;;;;5083768;28;20024;-44
2023/01/29 08:04:58;;;;;;;25.00;16.23;;;3.30;99.90;;;;;;5084729;28;20024;-44
2023/01/29 08:07:23;;;;;;;24.20;16.17;;;3.40;99.90;;;;;;5085249;28;20028;-42
2023/01/29 08:09:49;;;;;;;23.15;16.23;;;3.30;99.90;;;;;;5083982;28;20044;-43
2023/01/29 08:12:15;;;;;;;23.05;15.85;;;3.40;99.90;;;;;;5085035;28;20081;-43
2023/01/29 08:14:44;;;;;;;23.45;15.75;;;3.40;99.90;;;;;;5084560;28;20020;-44
2023/01/29 08:17:11;;;;;;;22.60;15.23;;;3.40;99.90;;;;;;5083694;28;20044;-43
2023/01/29 08:19:36;;;;;;;24.00;14.88;;;3.50;99.90;;;;;;5081115;28;20139;-43
2023/01/29 08:22:03;;;;;;;24.17;15.65;;;3.50;99.90;;;;;;5081874;28;20038;-43
2023/01/29 08:24:29;;;;;;;23.70;16.20;;;3.50;99.90;;;;;;5083189;28;20035;-42
2023/01/29 08:26:54;;;;;;;25.05;17.23;;;3.50;99.90;;;;;;5083363;28;20024;-43
2023/01/29 08:29:20;;;;;;;21.75;14.95;;;3.50;99.90;;;;;;5081953;28;20028;-43
2023/01/29 08:31:45;;;;;;;24.60;15.40;;;3.50;99.90;;;;;;5082421;28;20085;-43
2023/01/29 08:34:11;;;;;;;27.05;17.95;;;3.50;99.90;;;;;;5082185;28;20024;-43
2023/01/29 08:36:37;;;;;;;24.40;16.40;;;3.50;99.90;;;;;;5082010;28;20040;-43
2023/01/29 08:39:02;;;;;;;24.45;16.80;;;3.60;99.90;;;;;;5083315;28;20024;-43
2023/01/29 08:41:28;;;;;;;25.48;16.92;;;3.60;99.90;;;;;;5083527;28;20039;-43
2023/01/29 08:43:54;;;;;;;22.05;14.85;;;3.60;99.90;;;;;;5082749;28;20020;-43
2023/01/29 08:46:19;;;;;;;23.73;16.65;;;3.70;99.90;;;;;;5083938;28;20028;-44
2023/01/29 08:48:45;;;;;;;25.92;18.13;;;3.70;99.90;;;;;;5082319;28;20055;-44
2023/01/29 08:51:11;;;;;;;26.35;17.73;;;3.70;99.90;;;;;;5083137;28;20016;-41
2023/01/29 08:53:37;;;;;;;26.70;18.35;;;3.70;99.90;;;;;;5082544;28;20511;-43
2023/01/29 08:56:02;;;;;;;24.67;17.50;;;3.80;99.90;;;;;;5082943;28;20040;-43
2023/01/29 08:58:28;;;;;;;25.70;18.00;;;3.80;99.90;;;;;;5082651;28;20076;-43
2023/01/29 09:00:53;;;;;;;24.45;16.55;;;3.80;99.90;;;;;;5083350;28;20071;-41
2023/01/29 09:03:19;;;;;;;26.13;17.83;;;3.80;99.90;;;;;;5083505;28;20472;-43
2023/01/29 09:05:45;;;;;;;25.92;18.20;;;3.80;99.90;;;;;;5082789;28;20062;-43
2023/01/29 09:08:11;;;;;;;27.73;17.85;;;3.90;99.90;;;;;;5082380;28;20031;-44
2023/01/29 09:10:37;;;;;;;25.48;18.80;;;3.90;99.90;;;;;;5083186;28;20032;-43
2023/01/29 09:13:02;;;;;;;25.85;17.98;;;3.90;99.90;;;;;;5082390;28;20032;-43
2023/01/29 09:15:28;;;;;;;25.30;18.70;;;3.90;99.90;;;;;;5082976;28;20479;-43
2023/01/29 09:17:53;;;;;;;27.73;18.40;;;3.90;99.90;;;;;;5083771;28;20805;-43
2023/01/29 09:20:19;;;;;;;25.30;17.40;;;3.90;99.90;;;;;;5082946;28;20064;-43
2023/01/29 09:22:46;;;;;;;23.73;17.02;;;4.00;99.90;;;;;;5082945;28;20027;-43
2023/01/29 09:25:12;;;;;;;26.90;18.83;;;4.00;99.90;;;;;;5082491;28;20290;-43
2023/01/29 09:27:37;;;;;;;27.23;19.50;;;4.00;99.90;;;;;;5091040;28;20040;-43
2023/01/29 09:30:04;;;;;;;27.25;18.83;;;3.90;99.90;;;;;;5089946;28;20028;-43
2023/01/29 09:32:30;;;;;;;26.70;18.73;;;4.00;99.90;;;;;;5081866;28;20036;-43
2023/01/29 09:34:56;;;;;;;28.58;19.45;;;4.00;99.90;;;;;;5082313;28;20365;-43
2023/01/29 09:37:22;;;;;;;23.50;16.35;;;4.00;99.90;;;;;;5083098;28;20090;-43
2023/01/29 09:39:48;;;;;;;25.08;17.33;;;4.00;99.90;;;;;;5081536;28;20099;-43
2023/01/29 09:42:42;;;;;;;28.48;18.20;;;4.00;99.90;;;;;;5082399;28;20748;-43
2023/01/29 09:45:11;;;;;;;24.23;16.98;;;4.00;99.90;;;;;;5081090;28;20020;-43
2023/01/29 09:47:37;;;;;;;25.30;17.77;;;4.10;99.90;;;;;;5082083;28;20699;-43
2023/01/29 09:50:32;;;;;;;24.85;18.40;;;4.00;99.90;;;;;;5082842;28;20034;-43
2023/01/29 09:53:26;;;;;;;28.67;18.95;;;4.00;99.90;;;;;;5058385;28;20472;-43
2023/01/29 09:56:02;;;;;;;26.85;17.83;;;4.10;99.90;;;;;;5069397;28;20112;-44
2023/01/29 09:58:32;;;;;;;24.05;16.55;;;4.10;99.90;;;;;;5082114;28;20051;-44
2023/01/29 10:01:22;;;;;;;21.33;15.65;;;4.10;99.90;;;;;;5081261;28;20016;-43
2023/01/29 10:03:54;;;;;;;23.85;16.63;;;4.10;99.90;;;;;;5082052;28;20039;-44
2023/01/29 10:06:23;;;;;;;25.67;16.70;;;4.10;99.90;;;;;;5082151;28;20020;-43
2023/01/29 10:09:18;;;;;;;23.05;16.30;;;4.20;99.90;;;;;;5079149;28;20756;-43
2023/01/29 10:12:08;;;;;;;25.10;17.25;;;4.20;99.90;;;;;;5081837;28;20097;-43
2023/01/29 10:14:52;;;;;;;22.52;17.10;;;4.20;99.90;;;;;;5066389;28;20134;-43
2023/01/29 10:17:30;;;;;;;22.75;15.75;;;4.20;99.90;;;;;;5081654;28;20048;-43
2023/01/29 10:20:17;;;;;;;23.63;16.80;;;4.20;99.90;;;;;;5081486;28;20585;-43
2023/01/29 10:22:56;;;;;;;23.33;15.93;;;4.30;99.90;;;;;;5080766;28;20032;-43
2023/01/29 10:25:22;;;;;;;22.70;16.50;;;4.30;99.90;;;;;;5082083;28;20094;-43
2023/01/29 10:27:51;;;;;;;22.17;16.08;;;4.30;99.90;;;;;;5080877;28;20621;-43
2023/01/29 10:30:26;;;;;;;25.73;17.48;;;4.30;99.90;;;;;;5081482;28;20438;-42
2023/01/29 10:32:53;;;;;;;24.63;18.23;;;4.30;99.90;;;;;;5081227;28;20082;-43
2023/01/29 10:35:30;;;;;;;24.50;17.40;;;4.30;99.90;;;;;;5081548;28;20617;-43
2023/01/29 10:38:10;;;;;;;25.33;17.48;;;4.30;99.90;;;;;;5080791;28;20039;-43
2023/01/29 10:40:46;;;;;;;24.15;16.85;;;4.30;99.90;;;;;;5080720;28;20069;-43
2023/01/29 10:43:21;;;;;;;23.15;16.58;;;4.30;99.90;;;;;;5080508;28;20043;-43
2023/01/29 10:45:53;;;;;;;22.65;15.98;;;4.30;99.90;;;;;;5081778;28;20024;-43
2023/01/29 10:48:36;;;;;;;21.58;16.23;;;4.30;99.90;;;;;;5080851;28;20764;-44
2023/01/29 10:51:31;;;;;;;23.25;16.13;;;4.40;99.90;;;;;;5080424;28;20020;-44
2023/01/29 10:54:32;;;;;;;21.90;15.20;;;4.40;99.90;;;;;;5080787;28;20111;-44
2023/01/29 10:57:00;;;;;;;24.60;16.85;;;4.40;99.90;;;;;;5080207;28;20063;-43
2023/01/29 10:59:29;;;;;;;21.30;15.20;;;4.40;99.90;;;;;;5083370;28;20561;-44
2023/01/29 11:01:59;;;;;;;23.13;17.20;;;4.40;99.90;;;;;;5081313;28;20590;-44
2023/01/29 11:04:27;;;;;;;23.23;16.13;;;4.40;99.90;;;;;;5081190;28;20050;-44
2023/01/29 11:06:53;;;;;;;24.42;16.83;;;4.40;99.90;;;;;;5081676;28;20109;-43
2023/01/29 11:09:38;;;;;;;22.83;16.58;;;4.40;99.90;;;;;;5081416;28;20039;-43
2023/01/29 11:12:16;;;;;;;20.85;14.77;;;4.50;99.90;;;;;;5079823;28;20585;-43
2023/01/29 11:14:47;;;;;;;22.65;16.75;;;4.50;99.90;;;;;;5077186;28;20762;-44
2023/01/29 11:17:21;;;;;;;21.17;15.48;;;4.50;99.90;;;;;;5080881;28;20123;-43
2023/01/29 11:19:50;;;;;;;21.67;14.88;;;4.60;99.90;;;;;;5080096;28;20035;-44
2023/01/29 11:22:25;;;;;;;20.17;14.88;;;4.60;99.90;;;;;;5081026;28;20066;-44
2023/01/29 11:25:19;;;;;;;20.42;15.68;;;4.60;99.90;;;;;;5080405;28;20099;-43
2023/01/29 11:27:56;;;;;;;20.55;15.73;;;4.70;99.90;;;;;;5080531;28;20032;-43
2023/01/29 11:30:34;;;;;;;20.10;14.82;;;4.70;99.90;;;;;;5078570;28;20052;-43
2023/01/29 11:33:20;;;;;;;19.80;14.57;;;4.70;99.90;;;;;;5080028;28;20039;-43
2023/01/29 11:35:46;;;;;;;19.33;14.70;;;4.70;99.90;;;;;;5080268;28;20044;-43
2023/01/29 11:38:21;;;;;;;19.58;14.70;;;4.80;99.90;;;;;;5080325;28;20031;-42
2023/01/29 11:40:47;;;;;;;21.52;15.07;;;4.80;99.90;;;;;;5080323;28;20322;-43
2023/01/29 11:43:12;;;;;;;20.30;15.57;;;4.80;99.90;;;;;;5080366;28;20653;-43
2023/01/29 11:45:39;;;;;;;21.88;16.08;;;4.90;99.90;;;;;;5081000;28;20050;-43
2023/01/29 11:48:12;;;;;;;25.20;17.75;;;4.90;99.90;;;;;;5080269;28;20028;-43
2023/01/29 11:50:38;;;;;;;21.25;16.30;;;4.90;99.90;;;;;;5081071;28;20028;-44
2023/01/29 11:53:05;;;;;;;22.20;16.70;;;4.90;99.90;;;;;;5080374;28;20039;-44
2023/01/29 11:55:34;;;;;;;22.45;15.98;;;4.90;99.90;;;;;;5080973;28;20027;-43
2023/01/29 11:58:11;;;;;;;21.38;15.90;;;4.90;99.90;;;;;;5081021;28;20077;-43
2023/01/29 12:00:40;;;;;;;18.33;14.60;;;5.00;99.90;;;;;;5079516;28;20024;-43
2023/01/29 12:03:27;;;;;;;22.25;16.33;;;5.00;99.90;;;;;;5080897;28;20035;-44
2023/01/29 12:05:57;;;;;;;22.58;16.83;;;5.00;99.90;;;;;;5080060;28;20032;-43
2023/01/29 12:08:23;;;;;;;20.67;16.38;;;5.00;99.90;;;;;;5079845;28;20040;-43
2023/01/29 12:10:49;;;;;;;22.30;16.48;;;5.00;99.90;;;;;;5079356;28;20039;-43
2023/01/29 12:13:27;;;;;;;21.95;17.42;;;5.00;99.90;;;;;;5080325;28;20031;-43
2023/01/29 12:16:49;;;;;;;23.90;18.45;;;5.00;99.90;;;;;;5079137;28;20039;-43
2023/01/29 12:19:46;;;;;;;22.90;16.90;;;5.00;99.90;;;;;;4996716;28;20038;-43
2023/01/29 12:22:28;;;;;;;22.98;17.90;;;5.00;99.90;;;;;;5078140;28;20100;-43
2023/01/29 12:25:02;;;;;;;26.05;18.40;;;5.00;99.90;;;;;;5079653;28;20024;-42
2023/01/29 12:27:45;;;;;;;19.60;15.82;;;5.00;99.90;;;;;;5080355;28;20047;-43
2023/01/29 12:30:30;;;;;;;23.38;17.17;;;5.00;99.90;;;;;;5079536;28;20077;-43
2023/01/29 12:33:22;;;;;;;20.17;15.93;;;5.10;99.90;;;;;;5070631;28;20082;-43
2023/01/29 12:35:55;;;;;;;19.83;15.77;;;5.10;99.90;;;;;;5078394;28;20093;-44
2023/01/29 12:38:22;;;;;;;23.85;18.42;;;5.10;99.90;;;;;;5079617;28;20028;-43
2023/01/29 12:41:06;;;;;;;25.63;19.58;;;5.10;99.90;;;;;;5079703;28;20028;-44
2023/01/29 12:43:36;;;;;;;25.92;18.52;;;5.10;99.90;;;;;;5083050;28;20024;-44
2023/01/29 12:46:05;;;;;;;25.60;18.20;;;5.10;99.90;;;;;;5083656;28;20120;-44
2023/01/29 12:48:35;;;;;;;24.17;18.52;;;5.00;99.90;;;;;;5083427;28;20137;-44
2023/01/29 12:51:10;;;;;;;27.13;18.38;;;5.10;99.90;;;;;;5082651;28;20606;-44
2023/01/29 12:53:40;;;;;;;25.30;18.60;;;5.10;99.90;;;;;;5080579;28;20542;-45
2023/01/29 12:56:13;;;;;;;22.55;18.00;;;5.10;99.90;;;;;;5083289;28;20032;-43
2023/01/29 12:58:50;;;;;;;24.55;18.40;;;5.10;99.90;;;;;;5076346;28;20119;-43
2023/01/29 13:01:47;;;;;;;26.10;20.52;;;5.10;99.90;;;;;;5083599;28;20042;-45
2023/01/29 13:04:18;;;;;;;26.98;18.63;;;5.10;99.90;;;;;;5075392;28;20064;-43
2023/01/29 13:07:00;;;;;;;27.48;20.33;;;5.10;99.90;;;;;;5082611;28;20028;-43
2023/01/29 13:09:29;;;;;;;25.53;19.10;;;5.10;99.90;;;;;;5083384;28;20039;-43
2023/01/29 13:12:11;;;;;;;27.70;20.52;;;5.20;99.90;;;;;;5082244;28;20024;-43
2023/01/29 13:14:55;;;;;;;25.63;19.55;;;5.10;99.90;;;;;;5083596;28;20059;-43
2023/01/29 13:17:38;;;;;;;27.60;20.02;;;5.20;99.90;;;;;;5081797;28;20077;-44
2023/01/29 13:20:18;;;;;;;29.75;20.67;;;5.20;99.90;;;;;;5082818;28;20043;-44
2023/01/29 13:22:46;;;;;;;24.80;18.83;;;5.10;99.90;;;;;;5082553;28;20632;-44
2023/01/29 13:25:17;;;;;;;29.27;21.25;;;5.10;99.90;;;;;;5081864;28;20069;-44
2023/01/29 13:27:46;;;;;;;30.08;21.13;;;5.20;99.90;;;;;;5082222;28;20035;-43